Terminal Aerodrome Forecast
Issued by NWS Hastings, NE

Home | Current Version | Previous Version | Text Only | Print | Product List | Glossary On
Versions: 1 2 3 4 5 6 7 8 9 10 11 12 13 14 15 16 17 18 19 20 21 22
000
FTUS45 KGID 301120
TAFEAR
TAF
KEAR 301120Z 3012/0112 02012KT 2SM -RA OVC006
      TEMPO 3012/3016 5SM -DZ OVC004
     FM301600 02012KT P6SM -DZ OVC006
     FM302100 36012KT 5SM -RA OVC009
     FM010900 36013KT P6SM VCSH OVC003
      AMD LTD TO CLD VIS AND WIND=

USA.gov is the U.S. government's official web portal to all federal, state and local government web resources and services.